Fort Worth Alliance Airport
KAFW : rendu visible

Aérodrome :











RETROUVEZ-NOUS SUR...

 
LOGIN :

S'inscrire | Disclaimer

   EN    FR    IT 

 









Légende :    VFR   VFR Marginal   IFR   IFR Intensif   IFR Très Intensif
Visi : 
Plafond : 
>= 8 km
>= 3000ft
5 à 8 km
1000 à 3000 ft
1500m à 5 km
500 à 1000 ft
800 à 1500m
200 à 500 ft
< 800m
< 200 ft
Symboles :   Orages  Brouillard  Fortes neiges  Fortes précipitations  Vent > 20 kt






- Altitude de l'aérodrome : 722 ft


KAFW - Fort Worth Alliance

DERNIER METAR :
  • 271953Z 35011G21KT 4SM -DZ BR OVC006 03/02 A3010 RMK AO2 RAE34DZB34 SLP201 P0000 T00330017 $

METARs EXPIRÉS :
  • 271935Z 34012KT 4SM -DZ BR OVC006 03/02 A3011 RMK AO2 RAE34DZB34 P0000 T00330017 $
  • 271853Z 35014KT 2 1/2SM -RA BR OVC006 03/02 A3013 RMK AO2 RAB38SNB51E53 CIG 005V009 SLP211 P0000 T00330017 $
  • 271753Z 35016KT 5SM BR OVC007 03/02 A3014 RMK AO2 DZE25RAB33E48 SLP214 P0000 60002 T00330017 10033 20022 58014 $

TAF KAFW
Valide du 27 à 18h jusqu'au 28 à 18h UTC


271740Z 2718/2818 36011KT 4SM -DZ BR OVC005
FM280900 33008KT 2SM RADZ BR OVC005
FIR KZFW / Amérique du Nord



MET'MAP, la Météo Aéronautique d'un coup d'oeil ! - Copyright ORBIFLY Décembre 2007 - Disclaimer

ORBIFLY MET'MAP TEAM :

Programmation & Développement : Alexandra Zaïnal
Sur une idée originale de : Baudouin d'Aumeries
Assistance à la programmation : Marc-Olivier Méhu
Soutien technique & logistique : Manuel Goepfert

Contact : metmap@orbifly.com




SOURCES & CREDITS :

   NOAA       Earth
Advisory